sensor_id;sensor_type;location;lat;lon;timestamp;P1;durP1;ratioP1;P2;durP2;ratioP2
37845;SDS011;23686;49.828;8.702;2022-11-20T00:01:18;31.48;;;18.70;;
37845;SDS011;23686;49.828;8.702;2022-11-20T00:06:12;32.15;;;19.70;;
37845;SDS011;23686;49.828;8.702;2022-11-20T00:08:40;33.15;;;18.95;;
37845;SDS011;23686;49.828;8.702;2022-11-20T00:11:06;36.10;;;20.20;;
37845;SDS011;23686;49.828;8.702;2022-11-20T00:13:33;36.37;;;20.23;;
37845;SDS011;23686;49.828;8.702;2022-11-20T00:16:00;33.20;;;20.08;;
37845;SDS011;23686;49.828;8.702;2022-11-20T00:18:27;31.63;;;18.70;;
37845;SDS011;23686;49.828;8.702;2022-11-20T00:20:53;30.52;;;18.55;;
37845;SDS011;23686;49.828;8.702;2022-11-20T00:23:19;30.65;;;19.25;;
37845;SDS011;23686;49.828;8.702;2022-11-20T00:25:44;34.80;;;20.27;;
37845;SDS011;23686;49.828;8.702;2022-11-20T00:28:10;32.70;;;18.95;;
37845;SDS011;23686;49.828;8.702;2022-11-20T00:30:35;31.65;;;18.73;;
37845;SDS011;23686;49.828;8.702;2022-11-20T00:33:01;29.15;;;17.63;;
37845;SDS011;23686;49.828;8.702;2022-11-20T00:35:26;29.77;;;18.13;;
37845;SDS011;23686;49.828;8.702;2022-11-20T00:37:52;31.55;;;19.73;;
37845;SDS011;23686;49.828;8.702;2022-11-20T00:40:18;31.73;;;18.85;;
37845;SDS011;23686;49.828;8.702;2022-11-20T00:42:43;31.70;;;19.10;;
37845;SDS011;23686;49.828;8.702;2022-11-20T00:45:09;33.30;;;20.20;;
37845;SDS011;23686;49.828;8.702;2022-11-20T00:47:35;32.92;;;19.45;;
37845;SDS011;23686;49.828;8.702;2022-11-20T00:50:00;31.73;;;18.55;;
37845;SDS011;23686;49.828;8.702;2022-11-20T00:52:26;27.17;;;17.27;;
37845;SDS011;23686;49.828;8.702;2022-11-20T00:54:51;30.42;;;18.55;;
37845;SDS011;23686;49.828;8.702;2022-11-20T00:57:17;31.77;;;19.17;;
37845;SDS011;23686;49.828;8.702;2022-11-20T00:59:42;27.20;;;16.88;;
37845;SDS011;23686;49.828;8.702;2022-11-20T01:02:08;29.15;;;16.70;;
37845;SDS011;23686;49.828;8.702;2022-11-20T01:04:33;29.80;;;17.80;;
37845;SDS011;23686;49.828;8.702;2022-11-20T01:07:58;27.60;;;15.55;;
37845;SDS011;23686;49.828;8.702;2022-11-20T01:10:23;25.52;;;15.30;;
37845;SDS011;23686;49.828;8.702;2022-11-20T01:12:49;23.42;;;15.93;;
37845;SDS011;23686;49.828;8.702;2022-11-20T01:15:34;26.40;;;16.35;;
37845;SDS011;23686;49.828;8.702;2022-11-20T01:18:01;23.65;;;15.88;;
37845;SDS011;23686;49.828;8.702;2022-11-20T01:20:27;26.92;;;16.40;;
37845;SDS011;23686;49.828;8.702;2022-11-20T01:22:52;23.85;;;15.23;;
37845;SDS011;23686;49.828;8.702;2022-11-20T01:25:18;27.50;;;16.35;;
37845;SDS011;23686;49.828;8.702;2022-11-20T01:27:43;24.42;;;14.93;;
37845;SDS011;23686;49.828;8.702;2022-11-20T01:30:09;25.80;;;15.85;;
37845;SDS011;23686;49.828;8.702;2022-11-20T01:32:35;24.23;;;14.90;;
37845;SDS011;23686;49.828;8.702;2022-11-20T01:35:00;29.10;;;16.40;;
37845;SDS011;23686;49.828;8.702;2022-11-20T01:37:26;25.92;;;16.40;;
37845;SDS011;23686;49.828;8.702;2022-11-20T01:39:51;23.58;;;15.07;;
37845;SDS011;23686;49.828;8.702;2022-11-20T01:42:17;23.00;;;15.07;;
37845;SDS011;23686;49.828;8.702;2022-11-20T01:45:01;23.42;;;14.63;;
37845;SDS011;23686;49.828;8.702;2022-11-20T01:47:31;24.27;;;15.23;;
37845;SDS011;23686;49.828;8.702;2022-11-20T01:50:01;22.73;;;15.25;;
37845;SDS011;23686;49.828;8.702;2022-11-20T01:52:41;26.13;;;14.43;;
37845;SDS011;23686;49.828;8.702;2022-11-20T01:55:12;22.45;;;14.73;;
37845;SDS011;23686;49.828;8.702;2022-11-20T01:57:41;23.67;;;14.38;;
37845;SDS011;23686;49.828;8.702;2022-11-20T02:00:09;21.23;;;14.30;;
37845;SDS011;23686;49.828;8.702;2022-11-20T02:02:37;22.83;;;14.95;;
37845;SDS011;23686;49.828;8.702;2022-11-20T02:05:28;21.83;;;14.32;;
37845;SDS011;23686;49.828;8.702;2022-11-20T02:08:00;22.73;;;14.35;;
37845;SDS011;23686;49.828;8.702;2022-11-20T02:10:29;20.42;;;13.35;;
37845;SDS011;23686;49.828;8.702;2022-11-20T02:12:55;22.55;;;14.65;;
37845;SDS011;23686;49.828;8.702;2022-11-20T02:15:39;23.55;;;14.20;;
37845;SDS011;23686;49.828;8.702;2022-11-20T02:18:05;20.55;;;13.38;;
37845;SDS011;23686;49.828;8.702;2022-11-20T02:20:32;22.73;;;14.43;;
37845;SDS011;23686;49.828;8.702;2022-11-20T02:22:59;20.23;;;13.65;;
37845;SDS011;23686;49.828;8.702;2022-11-20T02:25:36;22.40;;;13.80;;
37845;SDS011;23686;49.828;8.702;2022-11-20T02:28:02;21.52;;;13.52;;
37845;SDS011;23686;49.828;8.702;2022-11-20T02:30:29;23.55;;;14.13;;
37845;SDS011;23686;49.828;8.702;2022-11-20T02:32:55;24.35;;;14.73;;
37845;SDS011;23686;49.828;8.702;2022-11-20T02:37:48;23.38;;;14.40;;
37845;SDS011;23686;49.828;8.702;2022-11-20T02:40:17;20.90;;;13.65;;
37845;SDS011;23686;49.828;8.702;2022-11-20T02:42:42;19.40;;;11.68;;
37845;SDS011;23686;49.828;8.702;2022-11-20T02:45:08;18.58;;;11.40;;
37845;SDS011;23686;49.828;8.702;2022-11-20T02:47:34;19.83;;;12.55;;
37845;SDS011;23686;49.828;8.702;2022-11-20T02:50:00;20.85;;;12.07;;
37845;SDS011;23686;49.828;8.702;2022-11-20T02:52:25;20.88;;;11.98;;
37845;SDS011;23686;49.828;8.702;2022-11-20T02:54:51;20.42;;;12.70;;
37845;SDS011;23686;49.828;8.702;2022-11-20T02:57:17;21.48;;;13.57;;
37845;SDS011;23686;49.828;8.702;2022-11-20T02:59:42;21.05;;;13.20;;
37845;SDS011;23686;49.828;8.702;2022-11-20T03:02:08;21.05;;;14.30;;
37845;SDS011;23686;49.828;8.702;2022-11-20T03:04:34;23.83;;;14.52;;
37845;SDS011;23686;49.828;8.702;2022-11-20T03:06:59;22.02;;;13.35;;
37845;SDS011;23686;49.828;8.702;2022-11-20T03:09:25;23.08;;;14.45;;
37845;SDS011;23686;49.828;8.702;2022-11-20T03:11:50;22.48;;;13.98;;
37845;SDS011;23686;49.828;8.702;2022-11-20T03:14:16;25.58;;;15.60;;
37845;SDS011;23686;49.828;8.702;2022-11-20T03:16:42;27.02;;;15.48;;
37845;SDS011;23686;49.828;8.702;2022-11-20T03:19:07;26.77;;;16.40;;
37845;SDS011;23686;49.828;8.702;2022-11-20T03:21:33;28.27;;;15.02;;
37845;SDS011;23686;49.828;8.702;2022-11-20T03:23:59;25.77;;;16.10;;
37845;SDS011;23686;49.828;8.702;2022-11-20T03:26:25;30.42;;;16.52;;
37845;SDS011;23686;49.828;8.702;2022-11-20T03:29:01;28.55;;;17.02;;
37845;SDS011;23686;49.828;8.702;2022-11-20T03:31:30;27.25;;;16.65;;
37845;SDS011;23686;49.828;8.702;2022-11-20T03:33:58;30.35;;;17.88;;
37845;SDS011;23686;49.828;8.702;2022-11-20T03:36:24;26.08;;;16.25;;
37845;SDS011;23686;49.828;8.702;2022-11-20T03:38:50;28.05;;;16.40;;
37845;SDS011;23686;49.828;8.702;2022-11-20T03:41:18;29.92;;;16.55;;
37845;SDS011;23686;49.828;8.702;2022-11-20T03:43:49;32.95;;;17.95;;
37845;SDS011;23686;49.828;8.702;2022-11-20T03:46:15;27.80;;;16.58;;
37845;SDS011;23686;49.828;8.702;2022-11-20T03:48:41;31.00;;;17.25;;
37845;SDS011;23686;49.828;8.702;2022-11-20T03:57:33;32.92;;;18.35;;
37845;SDS011;23686;49.828;8.702;2022-11-20T03:59:58;32.60;;;18.00;;
37845;SDS011;23686;49.828;8.702;2022-11-20T04:02:24;31.90;;;17.98;;
37845;SDS011;23686;49.828;8.702;2022-11-20T04:04:49;35.47;;;18.55;;
37845;SDS011;23686;49.828;8.702;2022-11-20T04:07:15;33.60;;;19.23;;
37845;SDS011;23686;49.828;8.702;2022-11-20T04:09:41;35.35;;;18.77;;
37845;SDS011;23686;49.828;8.702;2022-11-20T04:12:06;34.60;;;19.65;;
37845;SDS011;23686;49.828;8.702;2022-11-20T04:14:32;35.10;;;19.77;;
37845;SDS011;23686;49.828;8.702;2022-11-20T04:16:57;35.80;;;19.67;;
37845;SDS011;23686;49.828;8.702;2022-11-20T04:19:23;37.28;;;19.58;;
37845;SDS011;23686;49.828;8.702;2022-11-20T04:21:48;36.20;;;20.73;;
37845;SDS011;23686;49.828;8.702;2022-11-20T04:24:14;38.47;;;19.73;;
37845;SDS011;23686;49.828;8.702;2022-11-20T04:26:39;36.78;;;19.60;;
37845;SDS011;23686;49.828;8.702;2022-11-20T04:29:05;41.22;;;20.05;;
37845;SDS011;23686;49.828;8.702;2022-11-20T04:31:32;39.15;;;20.58;;
37845;SDS011;23686;49.828;8.702;2022-11-20T04:33:59;38.58;;;20.27;;
37845;SDS011;23686;49.828;8.702;2022-11-20T04:36:26;36.45;;;19.35;;
37845;SDS011;23686;49.828;8.702;2022-11-20T04:38:56;35.47;;;19.00;;
37845;SDS011;23686;49.828;8.702;2022-11-20T04:41:30;35.90;;;19.02;;
37845;SDS011;23686;49.828;8.702;2022-11-20T04:43:58;39.55;;;18.95;;
37845;SDS011;23686;49.828;8.702;2022-11-20T04:46:28;36.58;;;18.77;;
37845;SDS011;23686;49.828;8.702;2022-11-20T04:48:55;37.88;;;19.90;;
37845;SDS011;23686;49.828;8.702;2022-11-20T04:51:20;37.85;;;20.65;;
37845;SDS011;23686;49.828;8.702;2022-11-20T04:53:46;37.67;;;20.10;;
37845;SDS011;23686;49.828;8.702;2022-11-20T04:56:12;38.10;;;19.85;;
37845;SDS011;23686;49.828;8.702;2022-11-20T04:58:38;36.75;;;19.65;;
37845;SDS011;23686;49.828;8.702;2022-11-20T05:01:14;40.97;;;20.58;;
37845;SDS011;23686;49.828;8.702;2022-11-20T05:03:42;32.63;;;18.45;;
37845;SDS011;23686;49.828;8.702;2022-11-20T05:06:08;40.40;;;20.52;;
37845;SDS011;23686;49.828;8.702;2022-11-20T05:08:35;40.00;;;20.70;;
37845;SDS011;23686;49.828;8.702;2022-11-20T05:11:08;35.60;;;19.50;;
37845;SDS011;23686;49.828;8.702;2022-11-20T05:13:36;35.05;;;19.00;;
37845;SDS011;23686;49.828;8.702;2022-11-20T05:16:02;38.05;;;19.45;;
37845;SDS011;23686;49.828;8.702;2022-11-20T05:18:29;35.22;;;18.77;;
37845;SDS011;23686;49.828;8.702;2022-11-20T05:20:56;37.97;;;18.95;;
37845;SDS011;23686;49.828;8.702;2022-11-20T05:23:23;38.13;;;19.27;;
37845;SDS011;23686;49.828;8.702;2022-11-20T05:25:53;37.55;;;18.63;;
37845;SDS011;23686;49.828;8.702;2022-11-20T05:28:19;39.30;;;20.33;;
37845;SDS011;23686;49.828;8.702;2022-11-20T05:30:45;36.38;;;19.25;;
37845;SDS011;23686;49.828;8.702;2022-11-20T05:33:11;35.80;;;19.45;;
37845;SDS011;23686;49.828;8.702;2022-11-20T05:35:36;36.60;;;19.08;;
37845;SDS011;23686;49.828;8.702;2022-11-20T05:38:02;36.38;;;19.58;;
37845;SDS011;23686;49.828;8.702;2022-11-20T05:40:27;35.88;;;19.50;;
37845;SDS011;23686;49.828;8.702;2022-11-20T05:42:53;37.97;;;20.38;;
37845;SDS011;23686;49.828;8.702;2022-11-20T05:45:18;40.38;;;19.98;;
37845;SDS011;23686;49.828;8.702;2022-11-20T05:47:44;36.90;;;19.70;;
37845;SDS011;23686;49.828;8.702;2022-11-20T05:50:09;38.67;;;18.85;;
37845;SDS011;23686;49.828;8.702;2022-11-20T05:52:35;42.47;;;20.10;;
37845;SDS011;23686;49.828;8.702;2022-11-20T05:55:00;39.33;;;21.33;;
37845;SDS011;23686;49.828;8.702;2022-11-20T05:57:26;40.70;;;20.25;;
37845;SDS011;23686;49.828;8.702;2022-11-20T05:59:52;40.13;;;20.73;;
37845;SDS011;23686;49.828;8.702;2022-11-20T06:02:17;34.70;;;19.40;;
37845;SDS011;23686;49.828;8.702;2022-11-20T06:04:43;39.90;;;20.27;;
37845;SDS011;23686;49.828;8.702;2022-11-20T06:07:08;38.22;;;20.33;;
37845;SDS011;23686;49.828;8.702;2022-11-20T06:09:34;39.10;;;19.88;;
37845;SDS011;23686;49.828;8.702;2022-11-20T06:12:00;40.90;;;20.48;;
37845;SDS011;23686;49.828;8.702;2022-11-20T06:14:25;39.00;;;19.98;;
37845;SDS011;23686;49.828;8.702;2022-11-20T06:16:51;37.47;;;20.20;;
37845;SDS011;23686;49.828;8.702;2022-11-20T06:19:16;42.95;;;21.42;;
37845;SDS011;23686;49.828;8.702;2022-11-20T06:21:42;36.38;;;18.85;;
37845;SDS011;23686;49.828;8.702;2022-11-20T06:24:10;37.88;;;19.23;;
37845;SDS011;23686;49.828;8.702;2022-11-20T06:26:36;35.15;;;18.83;;
37845;SDS011;23686;49.828;8.702;2022-11-20T06:29:02;34.88;;;19.10;;
37845;SDS011;23686;49.828;8.702;2022-11-20T06:31:27;37.03;;;18.90;;
37845;SDS011;23686;49.828;8.702;2022-11-20T06:33:53;34.55;;;18.95;;
37845;SDS011;23686;49.828;8.702;2022-11-20T06:36:20;36.15;;;19.90;;
37845;SDS011;23686;49.828;8.702;2022-11-20T06:38:47;31.58;;;18.73;;
37845;SDS011;23686;49.828;8.702;2022-11-20T06:41:14;34.10;;;18.02;;
37845;SDS011;23686;49.828;8.702;2022-11-20T06:43:41;33.30;;;18.25;;
37845;SDS011;23686;49.828;8.702;2022-11-20T06:46:08;33.80;;;17.85;;
37845;SDS011;23686;49.828;8.702;2022-11-20T06:48:35;34.38;;;18.25;;
37845;SDS011;23686;49.828;8.702;2022-11-20T06:51:02;33.03;;;17.67;;
37845;SDS011;23686;49.828;8.702;2022-11-20T06:53:31;31.35;;;16.75;;
37845;SDS011;23686;49.828;8.702;2022-11-20T06:55:57;30.55;;;16.05;;
37845;SDS011;23686;49.828;8.702;2022-11-20T06:58:23;30.55;;;15.15;;
37845;SDS011;23686;49.828;8.702;2022-11-20T07:00:51;31.88;;;15.73;;
37845;SDS011;23686;49.828;8.702;2022-11-20T07:03:16;26.23;;;15.50;;
37845;SDS011;23686;49.828;8.702;2022-11-20T07:05:42;25.73;;;14.52;;
37845;SDS011;23686;49.828;8.702;2022-11-20T07:08:08;24.60;;;13.88;;
37845;SDS011;23686;49.828;8.702;2022-11-20T07:10:34;24.17;;;13.50;;
37845;SDS011;23686;49.828;8.702;2022-11-20T07:12:59;24.45;;;14.30;;
37845;SDS011;23686;49.828;8.702;2022-11-20T07:15:25;23.70;;;14.52;;
37845;SDS011;23686;49.828;8.702;2022-11-20T07:17:51;26.02;;;14.57;;
37845;SDS011;23686;49.828;8.702;2022-11-20T07:20:17;26.60;;;13.82;;
37845;SDS011;23686;49.828;8.702;2022-11-20T07:22:42;25.98;;;13.35;;
37845;SDS011;23686;49.828;8.702;2022-11-20T07:25:08;25.88;;;13.30;;
37845;SDS011;23686;49.828;8.702;2022-11-20T07:27:35;26.70;;;14.93;;
37845;SDS011;23686;49.828;8.702;2022-11-20T07:30:01;20.85;;;12.48;;
37845;SDS011;23686;49.828;8.702;2022-11-20T07:32:28;20.95;;;13.00;;
37845;SDS011;23686;49.828;8.702;2022-11-20T07:34:54;21.55;;;12.93;;
37845;SDS011;23686;49.828;8.702;2022-11-20T07:37:20;22.88;;;13.25;;
37845;SDS011;23686;49.828;8.702;2022-11-20T07:39:45;22.77;;;13.45;;
37845;SDS011;23686;49.828;8.702;2022-11-20T07:42:11;23.75;;;12.68;;
37845;SDS011;23686;49.828;8.702;2022-11-20T07:44:37;24.88;;;13.50;;
37845;SDS011;23686;49.828;8.702;2022-11-20T07:47:03;24.42;;;13.63;;
37845;SDS011;23686;49.828;8.702;2022-11-20T07:49:28;26.27;;;14.05;;
37845;SDS011;23686;49.828;8.702;2022-11-20T07:51:54;28.73;;;15.38;;
37845;SDS011;23686;49.828;8.702;2022-11-20T07:54:20;28.33;;;14.85;;
37845;SDS011;23686;49.828;8.702;2022-11-20T07:56:46;24.15;;;13.40;;
37845;SDS011;23686;49.828;8.702;2022-11-20T07:59:12;25.58;;;14.75;;
37845;SDS011;23686;49.828;8.702;2022-11-20T08:01:38;24.52;;;14.45;;
37845;SDS011;23686;49.828;8.702;2022-11-20T08:04:04;27.40;;;15.13;;
37845;SDS011;23686;49.828;8.702;2022-11-20T08:06:30;27.70;;;15.55;;
37845;SDS011;23686;49.828;8.702;2022-11-20T08:08:56;26.00;;;13.23;;
37845;SDS011;23686;49.828;8.702;2022-11-20T08:11:21;22.35;;;13.07;;
37845;SDS011;23686;49.828;8.702;2022-11-20T08:14:06;23.80;;;14.57;;
37845;SDS011;23686;49.828;8.702;2022-11-20T08:16:38;30.27;;;16.20;;
37845;SDS011;23686;49.828;8.702;2022-11-20T08:19:07;25.27;;;15.23;;
37845;SDS011;23686;49.828;8.702;2022-11-20T08:21:33;28.75;;;16.08;;
37845;SDS011;23686;49.828;8.702;2022-11-20T08:23:58;26.70;;;15.63;;
37845;SDS011;23686;49.828;8.702;2022-11-20T08:26:24;26.27;;;15.57;;
37845;SDS011;23686;49.828;8.702;2022-11-20T08:28:54;25.77;;;14.50;;
37845;SDS011;23686;49.828;8.702;2022-11-20T08:31:21;28.00;;;14.98;;
37845;SDS011;23686;49.828;8.702;2022-11-20T08:33:47;28.73;;;16.00;;
37845;SDS011;23686;49.828;8.702;2022-11-20T08:36:13;30.42;;;16.60;;
37845;SDS011;23686;49.828;8.702;2022-11-20T08:38:38;28.38;;;17.45;;
37845;SDS011;23686;49.828;8.702;2022-11-20T08:41:04;29.73;;;16.50;;
37845;SDS011;23686;49.828;8.702;2022-11-20T08:43:58;30.52;;;17.13;;
37845;SDS011;23686;49.828;8.702;2022-11-20T08:46:27;27.80;;;16.10;;
37845;SDS011;23686;49.828;8.702;2022-11-20T08:49:02;29.63;;;16.45;;
37845;SDS011;23686;49.828;8.702;2022-11-20T08:51:31;31.08;;;18.08;;
37845;SDS011;23686;49.828;8.702;2022-11-20T08:53:56;29.67;;;16.98;;
37845;SDS011;23686;49.828;8.702;2022-11-20T08:56:22;31.10;;;16.85;;
37845;SDS011;23686;49.828;8.702;2022-11-20T08:58:49;29.50;;;17.65;;
37845;SDS011;23686;49.828;8.702;2022-11-20T09:01:16;31.38;;;15.95;;
37845;SDS011;23686;49.828;8.702;2022-11-20T09:03:42;32.95;;;17.35;;
37845;SDS011;23686;49.828;8.702;2022-11-20T09:06:07;30.60;;;18.02;;
37845;SDS011;23686;49.828;8.702;2022-11-20T09:08:33;32.70;;;18.70;;
37845;SDS011;23686;49.828;8.702;2022-11-20T09:11:00;35.90;;;19.40;;
37845;SDS011;23686;49.828;8.702;2022-11-20T09:13:27;34.70;;;18.05;;
37845;SDS011;23686;49.828;8.702;2022-11-20T09:15:57;33.47;;;18.10;;
37845;SDS011;23686;49.828;8.702;2022-11-20T09:18:28;32.63;;;17.15;;
37845;SDS011;23686;49.828;8.702;2022-11-20T09:23:25;31.27;;;17.60;;
37845;SDS011;23686;49.828;8.702;2022-11-20T09:25:52;33.78;;;17.58;;
37845;SDS011;23686;49.828;8.702;2022-11-20T09:28:20;26.90;;;16.08;;
37845;SDS011;23686;49.828;8.702;2022-11-20T09:30:46;30.50;;;17.48;;
37845;SDS011;23686;49.828;8.702;2022-11-20T09:33:12;31.63;;;16.67;;
37845;SDS011;23686;49.828;8.702;2022-11-20T09:35:37;29.42;;;16.08;;
37845;SDS011;23686;49.828;8.702;2022-11-20T09:38:06;27.88;;;15.90;;
37845;SDS011;23686;49.828;8.702;2022-11-20T09:40:32;28.95;;;15.95;;
37845;SDS011;23686;49.828;8.702;2022-11-20T09:43:21;28.05;;;15.35;;
37845;SDS011;23686;49.828;8.702;2022-11-20T09:56:53;29.75;;;17.63;;
37845;SDS011;23686;49.828;8.702;2022-11-20T09:59:42;33.42;;;17.85;;
37845;SDS011;23686;49.828;8.702;2022-11-20T10:02:36;29.55;;;16.73;;
37845;SDS011;23686;49.828;8.702;2022-11-20T10:05:30;31.38;;;16.08;;
37845;SDS011;23686;49.828;8.702;2022-11-20T10:13:38;30.35;;;16.70;;
37845;SDS011;23686;49.828;8.702;2022-11-20T10:19:15;27.73;;;15.98;;
37845;SDS011;23686;49.828;8.702;2022-11-20T10:22:16;32.60;;;17.67;;
37845;SDS011;23686;49.828;8.702;2022-11-20T10:24:56;35.97;;;17.92;;
37845;SDS011;23686;49.828;8.702;2022-11-20T10:30:25;35.17;;;17.95;;
37845;SDS011;23686;49.828;8.702;2022-11-20T10:32:57;30.45;;;18.08;;
37845;SDS011;23686;49.828;8.702;2022-11-20T10:35:35;30.88;;;17.65;;
37845;SDS011;23686;49.828;8.702;2022-11-20T10:38:09;30.33;;;18.75;;
37845;SDS011;23686;49.828;8.702;2022-11-20T10:40:58;28.98;;;17.65;;
37845;SDS011;23686;49.828;8.702;2022-11-20T10:43:45;30.33;;;18.30;;
37845;SDS011;23686;49.828;8.702;2022-11-20T10:46:16;31.33;;;18.03;;
37845;SDS011;23686;49.828;8.702;2022-11-20T10:48:45;32.10;;;18.38;;
37845;SDS011;23686;49.828;8.702;2022-11-20T10:51:31;29.08;;;17.17;;
37845;SDS011;23686;49.828;8.702;2022-11-20T10:56:46;31.45;;;19.15;;
37845;SDS011;23686;49.828;8.702;2022-11-20T11:02:22;36.58;;;20.42;;
37845;SDS011;23686;49.828;8.702;2022-11-20T11:04:53;35.72;;;20.60;;
37845;SDS011;23686;49.828;8.702;2022-11-20T11:07:27;35.15;;;20.33;;
37845;SDS011;23686;49.828;8.702;2022-11-20T11:09:59;40.15;;;24.00;;
37845;SDS011;23686;49.828;8.702;2022-11-20T11:12:27;37.47;;;21.00;;
37845;SDS011;23686;49.828;8.702;2022-11-20T11:14:57;34.60;;;21.73;;
37845;SDS011;23686;49.828;8.702;2022-11-20T11:20:05;35.90;;;22.27;;
37845;SDS011;23686;49.828;8.702;2022-11-20T11:22:44;33.40;;;18.80;;
37845;SDS011;23686;49.828;8.702;2022-11-20T11:25:30;34.60;;;20.92;;
37845;SDS011;23686;49.828;8.702;2022-11-20T11:28:21;33.05;;;19.33;;
37845;SDS011;23686;49.828;8.702;2022-11-20T11:30:45;28.42;;;17.52;;
37845;SDS011;23686;49.828;8.702;2022-11-20T11:35:56;29.88;;;17.40;;
37845;SDS011;23686;49.828;8.702;2022-11-20T11:38:29;30.65;;;17.10;;
37845;SDS011;23686;49.828;8.702;2022-11-20T11:41:03;31.83;;;17.02;;
37845;SDS011;23686;49.828;8.702;2022-11-20T11:43:34;29.10;;;16.30;;
37845;SDS011;23686;49.828;8.702;2022-11-20T11:51:41;36.92;;;20.30;;
37845;SDS011;23686;49.828;8.702;2022-11-20T11:54:43;37.10;;;21.02;;
37845;SDS011;23686;49.828;8.702;2022-11-20T11:57:43;28.08;;;17.48;;
37845;SDS011;23686;49.828;8.702;2022-11-20T12:00:13;30.88;;;17.77;;
37845;SDS011;23686;49.828;8.702;2022-11-20T12:08:02;26.85;;;15.07;;
37845;SDS011;23686;49.828;8.702;2022-11-20T12:10:41;23.13;;;14.40;;
37845;SDS011;23686;49.828;8.702;2022-11-20T12:13:25;22.60;;;14.27;;
37845;SDS011;23686;49.828;8.702;2022-11-20T12:15:58;22.90;;;14.50;;
37845;SDS011;23686;49.828;8.702;2022-11-20T12:18:25;24.30;;;16.35;;
37845;SDS011;23686;49.828;8.702;2022-11-20T12:29:23;26.33;;;15.85;;
37845;SDS011;23686;49.828;8.702;2022-11-20T12:34:44;22.73;;;14.80;;
37845;SDS011;23686;49.828;8.702;2022-11-20T12:37:19;24.45;;;14.63;;
37845;SDS011;23686;49.828;8.702;2022-11-20T12:40:12;22.25;;;14.27;;
37845;SDS011;23686;49.828;8.702;2022-11-20T12:43:01;22.13;;;14.43;;
37845;SDS011;23686;49.828;8.702;2022-11-20T12:45:58;21.67;;;14.20;;
